Time;durP1;ratioP1;P1;durP2;ratioP2;P2;SDS_P1;SDS_P2;PMS_P1;PMS_P2;Temp;Humidity;BMP_temperature;BMP_pressure;BME280_temperature;BME280_humidity;BME280_pressure;Samples;Min_cycle;Max_cycle;Signal;HPM_P1;HPM_P2
2022/01/02 00:00:14;;;;;;;24.83;2.67;;;;;;;11.31;100.00;100542.94;5060754;28;20094;-50
2022/01/02 00:02:42;;;;;;;16.70;2.08;;;;;;;11.34;100.00;100553.16;5062235;28;20040;-49
2022/01/02 00:05:14;;;;;;;13.85;3.55;;;;;;;11.37;100.00;100542.13;5061989;28;20033;-55
2022/01/02 00:08:10;;;;;;;13.98;2.13;;;;;;;11.41;100.00;100530.13;5056476;28;20040;-52
2022/01/02 00:10:37;;;;;;;15.70;3.22;;;;;;;11.33;100.00;100539.06;5063087;28;20459;-51
2022/01/02 00:13:03;;;;;;;17.73;2.78;;;;;;;11.30;100.00;100522.69;5065198;28;20401;-52
2022/01/02 00:15:29;;;;;;;17.38;2.95;;;;;;;11.23;100.00;100524.47;5065576;28;20583;-48
2022/01/02 00:17:57;;;;;;;19.67;2.45;;;;;;;11.24;100.00;100518.97;5065225;28;20036;-49
2022/01/02 00:20:37;;;;;;;16.50;3.53;;;;;;;11.28;100.00;100516.75;5062578;28;20044;-48
2022/01/02 00:23:06;;;;;;;12.30;2.00;;;;;;;11.29;100.00;100521.06;5065856;28;20534;-50
2022/01/02 00:25:36;;;;;;;12.80;1.75;;;;;;;11.29;100.00;100499.84;5058416;28;20060;-53
2022/01/02 00:28:02;;;;;;;8.98;1.65;;;;;;;11.27;100.00;100496.53;5061658;28;20030;-50
2022/01/02 00:30:29;;;;;;;7.35;1.40;;;;;;;11.23;100.00;100500.59;5060264;28;20494;-48
2022/01/02 00:32:55;;;;;;;14.07;3.88;;;;;;;11.26;100.00;100494.91;5057514;28;20041;-49
2022/01/02 00:35:21;;;;;;;14.77;2.55;;;;;;;11.28;100.00;100490.22;5051848;28;20029;-51
2022/01/02 00:37:46;;;;;;;7.65;2.75;;;;;;;11.30;100.00;100496.16;5046218;28;20090;-51
2022/01/02 00:40:14;;;;;;;8.27;2.45;;;;;;;11.34;100.00;100492.09;5052087;28;20067;-50
2022/01/02 00:42:42;;;;;;;14.52;2.47;;;;;;;11.32;100.00;100484.31;5049571;28;20565;-50
2022/01/02 00:45:18;;;;;;;9.27;1.73;;;;;;;11.35;100.00;100496.38;5056877;28;20086;-50
2022/01/02 00:47:44;;;;;;;10.43;2.00;;;;;;;11.35;100.00;100486.56;5063472;28;20041;-48
2022/01/02 00:50:16;;;;;;;8.80;2.90;;;;;;;11.37;100.00;100485.59;5063644;28;20077;-51
2022/01/02 00:52:44;;;;;;;12.80;2.25;;;;;;;11.37;100.00;100481.09;5064220;28;20107;-50
2022/01/02 00:55:13;;;;;;;11.27;1.92;;;;;;;11.37;100.00;100475.78;5064091;28;20043;-49
2022/01/02 00:57:42;;;;;;;9.07;2.13;;;;;;;11.37;100.00;100473.13;5063512;28;20069;-49
2022/01/02 01:00:09;;;;;;;7.13;1.88;;;;;;;11.36;100.00;100460.88;5062615;28;20056;-50
2022/01/02 01:02:48;;;;;;;12.18;1.50;;;;;;;11.32;100.00;100454.31;5063415;28;20053;-51
2022/01/02 01:05:22;;;;;;;5.30;2.20;;;;;;;11.30;100.00;100459.00;5062306;28;20233;-52
2022/01/02 01:07:59;;;;;;;11.85;2.65;;;;;;;11.27;100.00;100448.75;5077365;28;20508;-52
2022/01/02 01:10:27;;;;;;;11.30;2.53;;;;;;;11.23;100.00;100448.34;5060788;28;20040;-50
2022/01/02 01:12:56;;;;;;;8.02;1.60;;;;;;;11.23;100.00;100440.38;5066268;28;20036;-50
2022/01/02 01:15:23;;;;;;;5.90;1.85;;;;;;;11.22;100.00;100440.56;5062598;28;20029;-49
2022/01/02 01:17:52;;;;;;;9.40;2.53;;;;;;;11.16;100.00;100438.72;5060037;28;20156;-53
2022/01/02 01:20:17;;;;;;;5.38;1.02;;;;;;;11.16;100.00;100428.91;5058973;28;20044;-52
2022/01/02 01:22:48;;;;;;;4.18;0.77;;;;;;;11.19;100.00;100435.66;5060791;28;20029;-49
2022/01/02 01:25:17;;;;;;;4.63;1.38;;;;;;;11.20;100.00;100430.13;5061624;28;20473;-49
2022/01/02 01:27:44;;;;;;;5.25;1.10;;;;;;;11.23;100.00;100426.28;5059518;28;20041;-50
2022/01/02 01:30:11;;;;;;;7.80;2.28;;;;;;;11.21;100.00;100421.19;5062597;28;20107;-51
2022/01/02 01:32:37;;;;;;;7.25;1.35;;;;;;;11.19;100.00;100409.94;5059383;28;20072;-54
2022/01/02 01:35:03;;;;;;;5.32;1.15;;;;;;;11.22;100.00;100406.06;5062702;28;20081;-50
2022/01/02 01:37:30;;;;;;;15.30;3.10;;;;;;;11.21;100.00;100401.78;5060721;28;20029;-53
2022/01/02 01:39:55;;;;;;;7.32;1.15;;;;;;;11.20;100.00;100400.94;5059700;28;20035;-50
2022/01/02 01:42:39;;;;;;;5.63;1.60;;;;;;;11.22;100.00;100392.81;5059662;28;20028;-48
2022/01/02 01:47:32;;;;;;;4.90;0.80;;;;;;;11.22;100.00;100392.81;5063188;28;20078;-55
2022/01/02 01:49:58;;;;;;;8.70;1.45;;;;;;;11.20;100.00;100387.69;5061118;28;20036;-50
2022/01/02 01:52:23;;;;;;;7.32;1.35;;;;;;;11.20;100.00;100392.19;5062516;28;20059;-53
2022/01/02 01:54:49;;;;;;;16.00;2.17;;;;;;;11.19;100.00;100383.41;5063563;28;20020;-50
2022/01/02 01:57:14;;;;;;;9.02;2.80;;;;;;;11.18;100.00;100380.94;5057956;28;20037;-50
2022/01/02 01:59:39;;;;;;;6.75;0.80;;;;;;;11.18;100.00;100368.50;5057638;28;20053;-49
2022/01/02 02:02:05;;;;;;;7.72;1.08;;;;;;;11.19;100.00;100369.31;5063815;28;20131;-48
2022/01/02 02:04:30;;;;;;;11.80;0.70;;;;;;;11.16;100.00;100377.69;5059591;28;20423;-49
2022/01/02 02:06:58;;;;;;;4.15;1.25;;;;;;;11.19;100.00;100372.78;5058598;28;20024;-51
2022/01/02 02:09:28;;;;;;;8.60;0.85;;;;;;;11.21;100.00;100367.28;5056907;28;20507;-49
2022/01/02 02:11:59;;;;;;;4.53;2.38;;;;;;;11.19;100.00;100361.34;5060656;28;20025;-49
2022/01/02 02:14:25;;;;;;;6.53;1.40;;;;;;;11.19;100.00;100371.97;5061198;28;20111;-48
2022/01/02 02:16:51;;;;;;;8.95;1.35;;;;;;;11.17;100.00;100358.06;5060240;28;20539;-48
2022/01/02 02:19:16;;;;;;;5.63;1.15;;;;;;;11.17;100.00;100360.72;5058127;28;20478;-49
2022/01/02 02:21:41;;;;;;;12.32;1.40;;;;;;;11.16;100.00;100370.53;5058472;28;20035;-50
2022/01/02 02:24:07;;;;;;;6.82;0.95;;;;;;;11.15;100.00;100358.25;5062097;28;20381;-50
2022/01/02 02:26:36;;;;;;;9.63;1.38;;;;;;;11.14;100.00;100359.28;5059501;28;20037;-47
2022/01/02 02:29:03;;;;;;;10.57;1.38;;;;;;;11.11;100.00;100352.53;5059415;28;20402;-50
2022/01/02 02:31:28;;;;;;;5.20;1.50;;;;;;;11.09;100.00;100357.22;5060714;28;20025;-48
2022/01/02 02:33:54;;;;;;;5.70;0.98;;;;;;;11.12;100.00;100356.00;5062377;28;20486;-48
2022/01/02 02:36:19;;;;;;;7.03;0.50;;;;;;;11.11;100.00;100351.72;5062283;28;20086;-50
2022/01/02 02:38:45;;;;;;;7.07;2.05;;;;;;;11.10;100.00;100358.03;5058698;28;20032;-51
2022/01/02 02:41:10;;;;;;;5.78;1.17;;;;;;;11.10;100.00;100336.81;5057616;28;20068;-53
2022/01/02 02:43:44;;;;;;;3.90;1.30;;;;;;;11.13;100.00;100331.94;5063477;28;20385;-49
2022/01/02 02:54:10;;;;;;;10.25;2.40;;;;;;;11.08;100.00;100309.69;5065873;28;20040;-52
2022/01/02 02:56:44;;;;;;;8.80;1.67;;;;;;;11.06;100.00;100315.16;5059100;28;20040;-50
2022/01/02 02:59:11;;;;;;;10.48;2.70;;;;;;;11.08;100.00;100307.84;5057275;28;20715;-48
2022/01/02 03:01:38;;;;;;;4.68;1.65;;;;;;;11.10;100.00;100315.56;5058940;28;20440;-50
2022/01/02 03:04:03;;;;;;;6.45;1.02;;;;;;;11.08;100.00;100307.84;5053030;28;20127;-48
2022/01/02 03:06:29;;;;;;;11.40;1.73;;;;;;;11.08;100.00;100307.84;5057992;28;20640;-53
2022/01/02 03:08:54;;;;;;;7.25;1.73;;;;;;;11.10;100.00;100303.16;5057466;28;20572;-52
2022/01/02 03:11:21;;;;;;;7.40;2.13;;;;;;;11.07;100.00;100287.59;5064201;28;20035;-49
2022/01/02 03:13:49;;;;;;;12.27;2.45;;;;;;;11.03;100.00;100278.44;5065115;28;20136;-48
2022/01/02 03:16:15;;;;;;;16.42;2.40;;;;;;;10.99;100.00;100271.88;5052173;28;20083;-48
2022/01/02 03:18:41;;;;;;;3.70;1.65;;;;;;;10.96;100.00;100261.66;5054056;28;20032;-48
2022/01/02 03:21:07;;;;;;;7.28;0.90;;;;;;;10.94;100.00;100258.38;5060194;28;20036;-48
2022/01/02 03:23:32;;;;;;;5.65;1.15;;;;;;;10.91;100.00;100253.47;5054046;28;20130;-48
2022/01/02 03:25:58;;;;;;;5.55;1.10;;;;;;;10.91;100.00;100251.63;5057992;28;20032;-52
2022/01/02 03:28:24;;;;;;;8.82;2.45;;;;;;;10.95;100.00;100259.22;5051114;28;20041;-49
2022/01/02 03:30:49;;;;;;;10.65;1.48;;;;;;;10.97;100.00;100257.16;5059401;28;20473;-48
2022/01/02 03:33:15;;;;;;;5.65;0.65;;;;;;;10.96;100.00;100244.94;5058218;28;20048;-48
2022/01/02 03:35:40;;;;;;;2.05;1.05;;;;;;;10.96;100.00;100243.09;5054217;28;20496;-48
2022/01/02 03:38:06;;;;;;;4.35;1.50;;;;;;;10.97;100.00;100230.63;5059185;28;20031;-48
2022/01/02 03:40:32;;;;;;;11.13;1.70;;;;;;;10.97;100.00;100228.84;5048005;28;20150;-52
2022/01/02 03:42:57;;;;;;;5.80;0.88;;;;;;;10.98;100.00;100225.16;5060950;28;20025;-48
2022/01/02 03:45:23;;;;;;;8.95;1.10;;;;;;;11.02;100.00;100228.22;5055862;28;20032;-51
2022/01/02 03:47:48;;;;;;;5.40;0.95;;;;;;;11.04;100.00;100220.88;5066783;28;20091;-48
2022/01/02 03:50:14;;;;;;;7.22;1.67;;;;;;;11.07;100.00;100218.63;5068428;28;20025;-52
2022/01/02 03:52:40;;;;;;;6.53;1.05;;;;;;;11.06;100.00;100213.53;5061611;28;20977;-51
2022/01/02 03:55:07;;;;;;;4.03;0.25;;;;;;;11.05;100.00;100201.31;5061954;28;20033;-51
2022/01/02 03:57:32;;;;;;;8.40;3.05;;;;;;;11.06;100.00;100192.31;5068587;28;20103;-48
2022/01/02 03:59:58;;;;;;;10.02;1.42;;;;;;;11.03;100.00;100190.88;5052989;28;20123;-48
2022/01/02 04:02:23;;;;;;;11.73;1.27;;;;;;;11.08;100.00;100198.25;5057072;28;20025;-52
2022/01/02 04:04:48;;;;;;;4.65;1.08;;;;;;;11.09;100.00;100187.41;5056417;28;20393;-49
2022/01/02 04:07:14;;;;;;;5.32;1.30;;;;;;;11.10;100.00;100181.09;5055409;28;20048;-51
2022/01/02 04:09:39;;;;;;;8.95;1.27;;;;;;;11.09;100.00;100170.69;5063068;28;20028;-51
2022/01/02 04:12:05;;;;;;;8.88;1.83;;;;;;;11.08;100.00;100188.44;5063571;28;20478;-47
2022/01/02 04:14:30;;;;;;;7.20;1.48;;;;;;;11.13;100.00;100195.81;5061870;28;20043;-47
2022/01/02 04:16:55;;;;;;;4.20;0.93;;;;;;;11.14;100.00;100182.31;5067269;28;20089;-48
2022/01/02 04:19:21;;;;;;;8.40;3.13;;;;;;;11.11;100.00;100180.06;5061219;28;20123;-54
2022/01/02 04:21:46;;;;;;;3.75;1.38;;;;;;;11.11;100.00;100189.88;5064041;28;20099;-47
2022/01/02 04:24:12;;;;;;;13.27;1.13;;;;;;;11.13;100.00;100201.09;5059407;28;20100;-51
2022/01/02 04:26:37;;;;;;;5.05;1.40;;;;;;;11.13;100.00;100182.53;5053767;28;20155;-48
2022/01/02 04:29:03;;;;;;;5.57;1.58;;;;;;;11.14;100.00;100189.47;5061491;28;20489;-49
2022/01/02 04:31:29;;;;;;;3.03;0.38;;;;;;;11.12;100.00;100170.28;5062834;28;20185;-48
2022/01/02 04:33:54;;;;;;;7.57;1.15;;;;;;;11.11;100.00;100180.06;5065032;28;20119;-52
2022/01/02 04:36:20;;;;;;;3.58;1.27;;;;;;;11.07;100.00;100189.44;5055534;28;20075;-50
2022/01/02 04:38:45;;;;;;;12.73;1.30;;;;;;;11.04;100.00;100173.13;5064193;28;20024;-51
2022/01/02 04:41:11;;;;;;;8.07;1.38;;;;;;;10.93;100.00;100171.88;5061732;28;20047;-54
2022/01/02 04:43:36;;;;;;;13.50;2.22;;;;;;;10.86;100.00;100169.19;5058392;28;20036;-48
2022/01/02 04:46:02;;;;;;;10.70;1.60;;;;;;;10.81;100.00;100152.25;5061370;28;20489;-50
2022/01/02 04:48:27;;;;;;;13.85;2.00;;;;;;;10.78;100.00;100155.31;5060264;28;20501;-50
2022/01/02 04:50:53;;;;;;;7.45;0.70;;;;;;;10.77;100.00;100153.69;5061420;28;20113;-50
2022/01/02 04:53:22;;;;;;;7.75;1.02;;;;;;;10.75;100.00;100158.38;5065365;28;20032;-51
2022/01/02 04:55:48;;;;;;;4.85;0.60;;;;;;;10.69;100.00;100147.53;5057722;28;20031;-50
2022/01/02 04:58:13;;;;;;;10.48;2.88;;;;;;;10.65;100.00;100138.34;5065746;28;20036;-51
2022/01/02 05:00:39;;;;;;;6.05;0.82;;;;;;;10.64;100.00;100134.06;5061207;28;20041;-48
2022/01/02 05:03:04;;;;;;;9.68;0.80;;;;;;;10.58;100.00;100145.44;5054405;28;20429;-48
2022/01/02 05:05:30;;;;;;;7.85;1.25;;;;;;;10.56;100.00;100133.41;5050812;28;20036;-54
2022/01/02 05:07:55;;;;;;;3.28;0.60;;;;;;;10.51;100.00;100131.38;5059090;28;20040;-53
2022/01/02 05:10:20;;;;;;;5.55;1.23;;;;;;;10.47;100.00;100119.53;5066529;28;20037;-49
2022/01/02 05:12:46;;;;;;;9.50;1.40;;;;;;;10.46;100.00;100108.13;5063333;28;20072;-49
2022/01/02 05:15:11;;;;;;;6.88;0.95;;;;;;;10.43;100.00;100111.16;5050052;28;20125;-47
2022/01/02 05:17:37;;;;;;;3.25;0.90;;;;;;;10.36;100.00;100086.47;5056532;28;20024;-50
2022/01/02 05:20:03;;;;;;;2.45;1.10;;;;;;;10.31;100.00;100109.28;5058361;28;20032;-49
2022/01/02 05:22:29;;;;;;;2.60;0.60;;;;;;;10.30;100.00;100113.78;5064791;28;20028;-49
2022/01/02 05:24:54;;;;;;;4.82;0.98;;;;;;;10.31;100.00;100118.03;5059357;28;20031;-49
2022/01/02 05:27:19;;;;;;;10.98;1.00;;;;;;;10.34;100.00;100108.88;5063808;28;20089;-51
2022/01/02 05:29:45;;;;;;;4.07;0.82;;;;;;;10.34;100.00;100114.19;5057821;28;20424;-50
2022/01/02 05:32:10;;;;;;;1.40;0.10;;;;;;;10.34;100.00;100108.88;5050942;28;20047;-56
2022/01/02 05:34:35;;;;;;;3.25;0.88;;;;;;;10.33;100.00;100123.16;5051536;28;20525;-48
2022/01/02 05:37:01;;;;;;;2.60;0.57;;;;;;;10.31;100.00;100125.19;5059482;28;20021;-52
2022/01/02 05:39:26;;;;;;;3.63;0.80;;;;;;;10.30;100.00;100128.84;5054316;28;20044;-47
2022/01/02 05:41:52;;;;;;;12.93;1.10;;;;;;;10.22;100.00;100127.13;5051623;28;20041;-51
2022/01/02 05:44:18;;;;;;;9.05;1.10;;;;;;;10.16;100.00;100128.75;5048677;28;20405;-47
2022/01/02 05:46:44;;;;;;;5.35;1.48;;;;;;;10.14;100.00;100129.97;5061119;28;20024;-51
2022/01/02 05:49:10;;;;;;;4.20;0.63;;;;;;;10.11;100.00;100136.47;5057964;28;20020;-51
2022/01/02 05:51:36;;;;;;;1.58;0.20;;;;;;;10.10;100.00;100140.13;5050978;28;20028;-50
2022/01/02 05:54:03;;;;;;;2.13;0.90;;;;;;;10.07;100.00;100143.19;5059548;28;20024;-49
2022/01/02 05:56:28;;;;;;;0.77;0.10;;;;;;;10.10;100.00;100142.78;5050297;28;20025;-49
2022/01/02 05:58:53;;;;;;;3.08;0.80;;;;;;;10.12;100.00;100146.06;5065316;28;20039;-48
2022/01/02 06:01:19;;;;;;;5.28;0.17;;;;;;;10.13;100.00;100138.94;5052802;28;20549;-50
2022/01/02 06:03:44;;;;;;;1.08;0.15;;;;;;;10.12;100.00;100132.81;5065902;28;20444;-47
2022/01/02 06:06:09;;;;;;;2.13;0.10;;;;;;;10.08;100.00;100128.91;5051829;28;20029;-48
2022/01/02 06:08:35;;;;;;;5.18;0.38;;;;;;;10.14;100.00;100141.38;5058133;28;20101;-48
2022/01/02 06:11:00;;;;;;;1.55;0.28;;;;;;;10.19;100.00;100143.44;5059006;28;20036;-51
2022/01/02 06:13:26;;;;;;;6.30;2.00;;;;;;;10.19;100.00;100144.25;5065905;28;20044;-52
2022/01/02 06:15:51;;;;;;;1.60;0.10;;;;;;;10.16;100.00;100142.00;5061933;28;20485;-52
2022/01/02 06:18:16;;;;;;;0.73;0.40;;;;;;;10.16;100.00;100155.25;5057737;28;20032;-49
2022/01/02 06:20:42;;;;;;;2.47;0.70;;;;;;;10.12;100.00;100161.13;5059559;28;20036;-50
2022/01/02 06:23:08;;;;;;;1.88;0.00;;;;;;;10.11;100.00;100162.94;5064053;28;20028;-51
2022/01/02 06:25:33;;;;;;;0.98;0.20;;;;;;;10.12;100.00;100177.00;5056763;28;20039;-52
2022/01/02 06:27:59;;;;;;;2.35;0.38;;;;;;;10.13;100.00;100158.28;5096979;28;20036;-51
2022/01/02 06:30:24;;;;;;;1.50;0.65;;;;;;;10.13;100.00;100160.94;5059422;28;20114;-51
2022/01/02 06:32:54;;;;;;;2.08;0.32;;;;;;;10.13;100.00;100176.00;5063161;28;20036;-48
2022/01/02 06:35:25;;;;;;;2.00;0.32;;;;;;;10.15;100.00;100176.66;5059591;28;20031;-49
2022/01/02 06:37:51;;;;;;;4.97;0.10;;;;;;;10.12;100.00;100180.50;5057542;28;20078;-47
2022/01/02 06:40:17;;;;;;;2.20;0.38;;;;;;;10.09;100.00;100185.34;5058365;28;20036;-47
2022/01/02 06:42:42;;;;;;;0.38;0.30;;;;;;;10.07;100.00;100182.91;5064659;28;20029;-50
2022/01/02 06:45:08;;;;;;;1.70;0.00;;;;;;;9.99;100.00;100183.03;5065031;28;20397;-50
2022/01/02 06:47:33;;;;;;;1.38;0.30;;;;;;;9.91;100.00;100199.09;5062309;28;20028;-48
2022/01/02 06:49:59;;;;;;;1.55;0.10;;;;;;;9.87;100.00;100189.91;5056305;28;20032;-53
2022/01/02 06:52:24;;;;;;;15.00;0.65;;;;;;;9.85;100.00;100189.28;5057648;28;20699;-50
2022/01/02 06:54:53;;;;;;;1.35;0.10;;;;;;;9.81;100.00;100186.22;5057364;28;20032;-49
2022/01/02 06:57:20;;;;;;;3.72;0.65;;;;;;;9.89;100.00;100195.84;5058955;28;20056;-49
2022/01/02 06:59:46;;;;;;;1.33;0.10;;;;;;;9.85;100.00;100189.28;5059855;28;20437;-49
2022/01/02 07:02:11;;;;;;;4.03;0.00;;;;;;;9.86;100.00;100191.75;5057221;28;20112;-48
2022/01/02 07:04:36;;;;;;;1.98;0.25;;;;;;;9.83;100.00;100200.06;5061147;28;20042;-48
2022/01/02 07:07:02;;;;;;;1.17;0.03;;;;;;;9.83;100.00;100214.16;5058513;28;20056;-52
2022/01/02 07:09:29;;;;;;;4.07;0.10;;;;;;;9.78;100.00;100213.91;5062753;28;20458;-52
2022/01/02 07:11:55;;;;;;;2.38;0.25;;;;;;;9.71;100.00;100201.63;5064053;28;20032;-48
2022/01/02 07:14:20;;;;;;;2.08;0.00;;;;;;;9.70;100.00;100203.41;5062105;28;20047;-50
2022/01/02 07:16:45;;;;;;;2.40;0.65;;;;;;;9.65;100.00;100200.53;5064206;28;20075;-48
2022/01/02 07:19:11;;;;;;;6.78;0.73;;;;;;;9.58;100.00;100195.19;5063897;28;20036;-52
2022/01/02 07:21:36;;;;;;;1.17;0.00;;;;;;;9.51;100.00;100196.97;5052159;28;20055;-50
2022/01/02 07:24:02;;;;;;;0.60;0.20;;;;;;;9.43;100.00;100207.69;5059623;28;20085;-53
2022/01/02 07:26:27;;;;;;;2.33;0.10;;;;;;;9.43;100.00;100223.56;5049085;28;20163;-50
2022/01/02 07:28:52;;;;;;;0.30;0.20;;;;;;;9.43;100.00;100222.75;5062316;28;20032;-48
2022/01/02 07:31:18;;;;;;;1.95;0.20;;;;;;;9.43;100.00;100228.88;5061346;28;20473;-48
2022/01/02 07:33:43;;;;;;;2.63;0.90;;;;;;;9.47;100.00;100242.53;5063855;28;20037;-50
2022/01/02 07:36:09;;;;;;;1.10;0.32;;;;;;;9.57;100.00;100230.59;5052827;28;20500;-53
2022/01/02 07:38:34;;;;;;;4.72;0.10;;;;;;;9.63;100.00;100233.50;5063408;28;20036;-50
2022/01/02 07:40:59;;;;;;;2.55;0.10;;;;;;;9.56;100.00;100234.28;5063591;28;20064;-52
2022/01/02 07:43:25;;;;;;;2.05;0.20;;;;;;;9.47;100.00;100248.63;5057727;28;20029;-48
2022/01/02 07:45:50;;;;;;;0.82;0.00;;;;;;;9.57;100.00;100248.31;5055809;28;20040;-49
2022/01/02 07:48:15;;;;;;;0.20;0.00;;;;;;;9.57;100.00;100249.13;5052226;28;20120;-49
2022/01/02 07:50:41;;;;;;;0.38;0.00;;;;;;;9.48;100.00;100257.41;5055427;28;20044;-52
2022/01/02 07:53:06;;;;;;;0.80;0.00;;;;;;;9.49;100.00;100251.91;5054756;28;20037;-50
2022/01/02 07:55:31;;;;;;;3.13;0.20;;;;;;;9.50;100.00;100272.09;5053088;28;20031;-49
2022/01/02 07:57:57;;;;;;;2.67;0.00;;;;;;;9.50;100.00;100266.81;5057383;28;20398;-54
2022/01/02 08:00:23;;;;;;;1.33;0.20;;;;;;;9.34;100.00;100283.72;5059035;28;20053;-48
2022/01/02 08:02:49;;;;;;;3.70;0.00;;;;;;;9.30;100.00;100292.25;5061691;28;20038;-53
2022/01/02 08:05:14;;;;;;;0.95;0.00;;;;;;;9.31;100.00;100307.09;5063550;28;20036;-48
2022/01/02 08:07:40;;;;;;;0.40;0.10;;;;;;;9.30;100.00;100302.81;5060039;28;20059;-49
2022/01/02 08:10:06;;;;;;;6.88;0.17;;;;;;;9.25;100.00;100315.78;5057036;28;20032;-53
2022/01/02 08:12:32;;;;;;;5.10;0.28;;;;;;;9.26;100.00;100318.22;5063308;28;20438;-52
2022/01/02 08:14:57;;;;;;;7.03;0.50;;;;;;;9.18;100.00;100326.28;5063963;28;20025;-53
2022/01/02 08:17:23;;;;;;;1.00;0.10;;;;;;;9.21;100.00;100333.84;5061756;28;20363;-49
2022/01/02 08:19:48;;;;;;;5.68;0.28;;;;;;;9.35;100.00;100330.34;5059259;28;20568;-48
2022/01/02 08:22:14;;;;;;;2.92;1.77;;;;;;;9.44;100.00;100324.94;5061175;28;20461;-50
2022/01/02 08:24:39;;;;;;;2.42;0.75;;;;;;;9.54;100.00;100325.47;5060518;28;20021;-48
2022/01/02 08:27:04;;;;;;;1.63;0.63;;;;;;;9.58;100.00;100322.25;5061213;28;20028;-49
2022/01/02 08:29:30;;;;;;;3.35;0.20;;;;;;;9.57;100.00;100323.25;5056259;28;20035;-49
2022/01/02 08:31:55;;;;;;;0.20;0.00;;;;;;;9.56;100.00;100321.63;5062419;28;20029;-49
2022/01/02 08:34:20;;;;;;;1.02;0.00;;;;;;;9.52;100.00;100336.22;5061649;28;20021;-50
2022/01/02 08:36:46;;;;;;;1.98;0.08;;;;;;;9.51;100.00;100339.06;5057057;28;20035;-49
2022/01/02 08:39:11;;;;;;;0.90;0.75;;;;;;;9.49;100.00;100351.66;5061421;28;20474;-51
2022/01/02 08:41:36;;;;;;;1.65;0.03;;;;;;;9.53;100.00;100351.13;5064200;28;20024;-47
2022/01/02 08:44:02;;;;;;;1.42;0.00;;;;;;;9.52;100.00;100354.75;5061674;28;20476;-49
2022/01/02 08:46:27;;;;;;;0.30;0.00;;;;;;;9.50;100.00;100361.25;5058505;28;20063;-50
2022/01/02 08:48:52;;;;;;;1.55;0.03;;;;;;;9.49;100.00;100359.59;5064609;28;20032;-50
2022/01/02 08:51:18;;;;;;;1.75;0.30;;;;;;;9.51;100.00;100357.59;5061983;28;20040;-53
2022/01/02 08:53:43;;;;;;;2.45;0.10;;;;;;;9.54;100.00;100355.38;5066189;28;20032;-50
2022/01/02 08:56:09;;;;;;;7.90;0.10;;;;;;;9.56;100.00;100350.72;5062396;28;20029;-54
2022/01/02 08:58:34;;;;;;;3.10;0.20;;;;;;;9.53;100.00;100345.81;5063784;28;20032;-52
2022/01/02 09:01:02;;;;;;;4.65;0.47;;;;;;;9.48;100.00;100348.22;5060257;28;20036;-52
2022/01/02 09:03:29;;;;;;;2.88;0.10;;;;;;;9.35;100.00;100348.06;5055456;28;20489;-48
2022/01/02 09:05:55;;;;;;;3.60;1.17;;;;;;;9.19;100.00;100359.69;5056413;28;20528;-49
2022/01/02 09:08:20;;;;;;;0.95;0.10;;;;;;;9.08;100.00;100355.66;5061986;28;20028;-50
2022/01/02 09:10:46;;;;;;;1.27;0.20;;;;;;;9.04;100.00;100362.34;5066228;28;20159;-50
2022/01/02 09:13:11;;;;;;;3.70;0.57;;;;;;;9.00;100.00;100357.59;5063010;28;20119;-50
2022/01/02 09:15:37;;;;;;;0.77;0.10;;;;;;;8.98;100.00;100376.28;5067167;28;20111;-54
2022/01/02 09:18:05;;;;;;;1.23;0.03;;;;;;;9.02;100.00;100364.34;5062673;28;20478;-51
2022/01/02 09:20:30;;;;;;;3.42;0.25;;;;;;;9.05;100.00;100363.97;5062066;28;20033;-52
2022/01/02 09:22:55;;;;;;;0.40;0.00;;;;;;;9.05;100.00;100361.31;5063372;28;20039;-50
2022/01/02 09:25:21;;;;;;;2.15;0.63;;;;;;;9.08;100.00;100357.50;5059705;28;20035;-49
2022/01/02 09:27:46;;;;;;;2.03;0.40;;;;;;;9.12;100.00;100359.59;5060412;28;20037;-51
2022/01/02 09:30:13;;;;;;;1.75;0.63;;;;;;;9.12;100.00;100353.47;5058590;28;20028;-53
2022/01/02 09:32:38;;;;;;;2.97;0.00;;;;;;;9.12;100.00;100358.78;5052055;28;20120;-52
2022/01/02 09:35:05;;;;;;;0.68;0.00;;;;;;;9.14;100.00;100364.72;5061084;28;20468;-50
2022/01/02 09:37:31;;;;;;;2.50;0.60;;;;;;;9.11;100.00;100357.13;5046826;28;20506;-47
2022/01/02 09:39:56;;;;;;;1.65;0.68;;;;;;;9.05;100.00;100358.69;5060151;28;20094;-50
2022/01/02 09:42:22;;;;;;;5.43;0.93;;;;;;;9.01;100.00;100359.22;5058182;28;20025;-52
2022/01/02 09:44:47;;;;;;;0.65;0.00;;;;;;;9.05;100.00;100365.78;5050664;28;20041;-48
2022/01/02 09:47:18;;;;;;;2.35;0.00;;;;;;;9.12;100.00;100374.66;5052881;28;20557;-49
2022/01/02 09:49:46;;;;;;;2.63;0.10;;;;;;;9.24;100.00;100362.59;5056839;28;20341;-49
2022/01/02 09:52:11;;;;;;;2.30;0.20;;;;;;;9.25;100.00;100366.06;5064468;28;20036;-48
2022/01/02 09:54:36;;;;;;;4.28;0.57;;;;;;;9.24;100.00;100357.31;5056936;28;20081;-50
2022/01/02 09:57:02;;;;;;;1.17;0.47;;;;;;;9.28;100.00;100363.03;5066515;28;20099;-51
2022/01/02 09:59:28;;;;;;;1.73;0.10;;;;;;;9.33;100.00;100365.94;5059290;28;20413;-51
2022/01/02 10:01:53;;;;;;;1.60;0.57;;;;;;;9.36;100.00;100358.44;5061845;28;20028;-52
2022/01/02 10:04:33;;;;;;;3.85;0.10;;;;;;;9.39;100.00;100346.66;5059493;28;20070;-50
2022/01/02 10:06:58;;;;;;;0.75;0.00;;;;;;;9.36;100.00;100350.50;5061235;28;20090;-52
2022/01/02 10:09:34;;;;;;;1.77;0.00;;;;;;;9.39;100.00;100360.72;5064083;28;20036;-53
2022/01/02 10:12:29;;;;;;;1.25;0.10;;;;;;;9.41;100.00;100351.78;5065065;28;20038;-53
2022/01/02 10:15:06;;;;;;;1.02;0.00;;;;;;;9.43;100.00;100355.88;5056796;28;20032;-49
2022/01/02 10:17:51;;;;;;;4.35;0.10;;;;;;;9.51;100.00;100341.72;5065402;28;20107;-52
2022/01/02 10:20:17;;;;;;;2.15;0.13;;;;;;;9.54;100.00;100349.28;5062673;28;20028;-52
2022/01/02 10:23:10;;;;;;;1.60;0.25;;;;;;;9.63;100.00;100349.97;5059780;28;20505;-53
2022/01/02 10:25:42;;;;;;;1.17;0.32;;;;;;;9.66;100.00;100347.78;5057681;28;20479;-48
2022/01/02 10:28:17;;;;;;;0.52;0.00;;;;;;;9.73;100.00;100351.34;5061543;28;20433;-54
2022/01/02 10:30:47;;;;;;;7.93;0.75;;;;;;;9.77;100.00;100347.28;5063325;28;20055;-47
2022/01/02 10:33:14;;;;;;;0.70;0.10;;;;;;;9.76;100.00;100358.88;5059374;28;20024;-53
2022/01/02 10:35:43;;;;;;;0.22;0.17;;;;;;;9.85;100.00;100351.63;5060150;28;20028;-51
2022/01/02 10:38:17;;;;;;;1.60;0.00;;;;;;;9.94;100.00;100357.59;5057411;28;20024;-48
2022/01/02 10:40:43;;;;;;;2.38;0.00;;;;;;;10.00;100.00;100362.97;5056062;28;20039;-48
2022/01/02 10:43:33;;;;;;;0.52;0.00;;;;;;;10.04;100.00;100358.09;5054238;28;20028;-49
2022/01/02 10:46:03;;;;;;;1.65;0.00;;;;;;;10.04;100.00;100353.66;5053459;28;20063;-49
2022/01/02 10:48:31;;;;;;;1.33;0.00;;;;;;;10.11;100.00;100352.88;5058593;28;20140;-52
2022/01/02 10:51:04;;;;;;;1.20;0.10;;;;;;;10.19;100.00;100348.25;5055106;28;20206;-50
2022/01/02 10:53:31;;;;;;;1.92;0.82;;;;;;;10.30;100.00;100346.13;5058063;28;20032;-50
2022/01/02 10:55:58;;;;;;;2.15;0.57;;;;;;;10.33;100.00;100340.47;5053650;28;20116;-51
2022/01/02 10:58:25;;;;;;;0.55;0.25;;;;;;;10.28;100.00;100338.38;5055721;28;20039;-54
2022/01/02 11:00:51;;;;;;;0.20;0.13;;;;;;;10.31;100.00;100331.88;5053112;28;20033;-51
2022/01/02 11:03:25;;;;;;;1.60;0.03;;;;;;;10.43;100.00;100340.94;5057413;28;20067;-48
2022/01/02 11:05:58;;;;;;;1.77;0.08;;;;;;;10.44;100.00;100326.66;5055802;28;20021;-48
2022/01/02 11:08:27;;;;;;;0.00;0.00;;;;;;;10.41;100.00;100329.72;5055723;28;20033;-48
2022/01/02 11:10:55;;;;;;;0.40;0.30;;;;;;;10.39;100.00;100326.44;5054731;28;20098;-50
2022/01/02 11:13:21;;;;;;;2.78;0.05;;;;;;;10.39;100.00;100327.25;5060823;28;20021;-50
2022/01/02 11:15:47;;;;;;;1.48;0.00;;;;;;;10.39;100.00;100319.28;5050023;28;20478;-50
2022/01/02 11:18:13;;;;;;;0.10;0.00;;;;;;;10.38;100.00;100332.75;5053262;28;20105;-47
2022/01/02 11:20:40;;;;;;;0.00;0.00;;;;;;;10.36;100.00;100322.34;5051998;28;20043;-54
2022/01/02 11:23:21;;;;;;;0.22;0.00;;;;;;;10.35;100.00;100335.78;5056696;28;20032;-52
2022/01/02 11:26:03;;;;;;;3.78;0.00;;;;;;;10.33;100.00;100329.88;5055060;28;20025;-47
2022/01/02 11:28:47;;;;;;;0.10;0.00;;;;;;;10.28;100.00;100324.31;5054972;28;20793;-52